Terminal Aerodrome Forecast
Issued by NWS Wakefield, VA

Current Version | Previous Version | Text Only | Print | Product List | Glossary On
Versions: 1 2 3 4 5 6 7 8 9 10 11 12 13
000
FTUS41 KAKQ 260540
TAFORF
TAF
KORF 260540Z 2606/2706 20010KT P6SM SKC
     FM261500 20011G18KT P6SM SCT050
     FM270200 21011KT P6SM BKN250=

USA.gov is the U.S. government's official web portal to all federal, state and local government web resources and services.